Time;durP1;ratioP1;P1;durP2;ratioP2;P2;SDS_P1;SDS_P2;PMS_P1;PMS_P2;Temp;Humidity;BMP_temperature;BMP_pressure;BME280_temperature;BME280_humidity;BME280_pressure;Samples;Min_cycle;Max_cycle;Signal;HPM_P1;HPM_P2
2021/06/21 01:31:44;;;;;;;14.88;8.38;;;;;;;;;;5005777;27;74851;-65
2021/06/21 01:34:10;;;;;;;11.88;8.25;;;;;;;;;;5032529;28;20530;-65
2021/06/21 02:09:10;;;;;;;23.27;14.18;;;;;;;;;;5038046;27;475189;-89
2021/06/21 02:12:19;;;;;;;23.15;16.15;;;;;;;;;;5059488;27;158362;-82
2021/06/21 02:14:51;;;;;;;23.08;14.57;;;;;;;;;;4962193;28;20073;-86
2021/06/21 02:17:23;;;;;;;25.25;16.25;;;;;;;;;;5018301;28;20042;-87
2021/06/21 02:19:53;;;;;;;23.50;16.42;;;;;;;;;;5017817;28;20034;-87
2021/06/21 02:22:22;;;;;;;24.33;16.05;;;;;;;;;;5010214;28;20456;-94
2021/06/21 02:24:48;;;;;;;24.15;16.48;;;;;;;;;;5035240;28;20038;-89
2021/06/21 02:27:15;;;;;;;24.23;15.80;;;;;;;;;;5033812;28;20033;-89
2021/06/21 02:29:43;;;;;;;24.73;16.42;;;;;;;;;;5000910;28;20122;-90
2021/06/21 02:32:10;;;;;;;23.50;15.80;;;;;;;;;;4991453;28;20069;-88
2021/06/21 02:34:36;;;;;;;24.90;17.15;;;;;;;;;;5034711;28;20041;-87
2021/06/21 02:37:02;;;;;;;27.33;17.20;;;;;;;;;;5022933;28;20041;-89
2021/06/21 02:39:28;;;;;;;29.90;21.02;;;;;;;;;;5025240;28;20044;-87
2021/06/21 02:41:54;;;;;;;33.22;21.35;;;;;;;;;;5025465;28;20041;-88
2021/06/21 02:44:20;;;;;;;30.05;19.75;;;;;;;;;;5039685;28;20037;-95
2021/06/21 02:46:46;;;;;;;34.45;20.67;;;;;;;;;;5056591;28;20030;-90
2021/06/21 02:49:12;;;;;;;33.80;21.85;;;;;;;;;;5037968;28;20486;-91
2021/06/21 02:51:42;;;;;;;33.42;24.27;;;;;;;;;;5015610;28;20079;-90
2021/06/21 02:54:19;;;;;;;38.78;25.48;;;;;;;;;;5038966;28;20036;-88
2021/06/21 02:56:56;;;;;;;35.55;23.90;;;;;;;;;;5045554;28;20120;-93
2021/06/21 02:59:23;;;;;;;30.60;20.88;;;;;;;;;;5033238;28;20121;-91
2021/06/21 03:01:53;;;;;;;33.08;21.38;;;;;;;;;;5016498;28;20057;-87
2021/06/21 03:04:20;;;;;;;30.73;18.58;;;;;;;;;;5018230;28;20029;-87
2021/06/21 03:06:47;;;;;;;30.90;20.77;;;;;;;;;;5025934;28;20084;-87
2021/06/21 03:09:14;;;;;;;31.90;18.05;;;;;;;;;;5038356;28;20080;-81
2021/06/21 03:11:42;;;;;;;23.20;14.45;;;;;;;;;;5033498;28;20052;-87
2021/06/21 03:14:09;;;;;;;28.83;18.92;;;;;;;;;;5024137;28;20044;-92
2021/06/21 03:16:35;;;;;;;29.27;16.98;;;;;;;;;;5045852;28;20033;-93
2021/06/21 03:19:02;;;;;;;25.67;17.45;;;;;;;;;;5026437;28;20045;-91
2021/06/21 03:21:28;;;;;;;27.17;19.60;;;;;;;;;;5021846;28;20784;-89
2021/06/21 03:23:55;;;;;;;24.52;15.73;;;;;;;;;;5013380;28;20041;-90
2021/06/21 03:26:28;;;;;;;23.65;15.40;;;;;;;;;;5024676;28;20034;-88
2021/06/21 03:28:55;;;;;;;20.42;14.60;;;;;;;;;;5028272;28;20110;-90
2021/06/21 03:31:22;;;;;;;27.13;19.50;;;;;;;;;;5012978;28;20072;-91
2021/06/21 03:33:49;;;;;;;27.00;16.55;;;;;;;;;;5017276;28;20034;-91
2021/06/21 03:36:15;;;;;;;26.55;16.77;;;;;;;;;;5016908;28;20033;-89
2021/06/21 03:38:42;;;;;;;26.88;17.13;;;;;;;;;;5002645;28;20061;-92
2021/06/21 03:41:09;;;;;;;26.75;17.90;;;;;;;;;;5021402;28;20117;-92
2021/06/21 03:43:35;;;;;;;30.65;22.40;;;;;;;;;;5021019;28;20113;-90
2021/06/21 03:46:03;;;;;;;23.85;16.23;;;;;;;;;;5014837;28;20056;-91
2021/06/21 03:48:29;;;;;;;22.65;18.02;;;;;;;;;;4996600;28;20030;-88
2021/06/21 03:50:56;;;;;;;28.05;18.58;;;;;;;;;;5026140;28;20594;-91
2021/06/21 03:53:24;;;;;;;29.10;20.55;;;;;;;;;;5005674;28;20030;-90
2021/06/21 03:55:52;;;;;;;34.97;23.88;;;;;;;;;;5016999;28;20131;-90
2021/06/21 03:58:18;;;;;;;39.63;29.50;;;;;;;;;;5015147;28;20038;-90
2021/06/21 04:00:44;;;;;;;40.47;30.48;;;;;;;;;;5012769;28;20569;-92
2021/06/21 04:03:10;;;;;;;45.00;32.38;;;;;;;;;;5017270;28;20033;-91
2021/06/21 04:05:39;;;;;;;38.97;28.65;;;;;;;;;;5021515;28;20038;-93
2021/06/21 04:08:05;;;;;;;31.88;23.55;;;;;;;;;;5016545;28;20034;-92
2021/06/21 04:10:32;;;;;;;33.70;23.65;;;;;;;;;;5015144;28;20439;-90
2021/06/21 04:12:58;;;;;;;31.10;23.42;;;;;;;;;;5010346;28;20124;-92
2021/06/21 04:15:28;;;;;;;29.55;21.58;;;;;;;;;;5030356;28;20045;-90
2021/06/21 04:17:55;;;;;;;30.42;20.85;;;;;;;;;;4996649;28;20045;-90
2021/06/21 04:20:21;;;;;;;31.15;22.58;;;;;;;;;;5019996;28;20083;-90
2021/06/21 04:22:49;;;;;;;29.52;19.63;;;;;;;;;;5025913;28;20065;-89
2021/06/21 04:25:16;;;;;;;27.70;22.00;;;;;;;;;;5021448;28;20123;-88
2021/06/21 04:27:42;;;;;;;26.20;20.88;;;;;;;;;;5018449;28;20044;-89
2021/06/21 04:30:09;;;;;;;29.58;21.30;;;;;;;;;;4998316;28;20137;-92
2021/06/21 04:32:35;;;;;;;28.63;21.58;;;;;;;;;;4998008;28;20034;-89
2021/06/21 04:35:01;;;;;;;31.17;22.48;;;;;;;;;;5033998;28;20033;-91
2021/06/21 04:37:27;;;;;;;28.80;21.23;;;;;;;;;;5011055;28;20041;-89
2021/06/21 04:39:53;;;;;;;32.05;22.98;;;;;;;;;;5020418;28;20060;-90
2021/06/21 04:42:19;;;;;;;30.73;22.08;;;;;;;;;;5018573;28;20489;-90
2021/06/21 04:44:49;;;;;;;30.17;21.25;;;;;;;;;;5017885;28;20047;-89
2021/06/21 04:47:15;;;;;;;28.52;22.80;;;;;;;;;;5025054;28;20588;-89
2021/06/21 04:49:41;;;;;;;27.83;20.85;;;;;;;;;;5008446;28;20034;-89
2021/06/21 04:52:08;;;;;;;27.80;21.45;;;;;;;;;;5033997;28;20045;-88
2021/06/21 04:54:34;;;;;;;30.05;21.10;;;;;;;;;;5023523;28;20056;-89
2021/06/21 04:57:00;;;;;;;28.48;20.30;;;;;;;;;;5038925;28;20476;-89
2021/06/21 04:59:26;;;;;;;32.97;21.70;;;;;;;;;;5029729;28;20045;-89
2021/06/21 05:01:52;;;;;;;29.45;21.02;;;;;;;;;;5032853;28;20029;-88
2021/06/21 05:04:21;;;;;;;29.25;20.45;;;;;;;;;;5005487;28;20068;-92
2021/06/21 05:06:47;;;;;;;29.35;19.92;;;;;;;;;;5009459;28;20122;-89
2021/06/21 05:09:13;;;;;;;28.95;19.88;;;;;;;;;;5005087;28;20038;-87
2021/06/21 05:11:39;;;;;;;29.42;20.65;;;;;;;;;;5007580;28;20499;-89
2021/06/21 05:14:05;;;;;;;29.73;21.48;;;;;;;;;;5006832;28;20077;-92
2021/06/21 05:16:31;;;;;;;30.90;22.55;;;;;;;;;;5003664;28;20037;-90
2021/06/21 05:18:58;;;;;;;30.63;21.38;;;;;;;;;;5012418;28;20032;-89
2021/06/21 05:21:26;;;;;;;33.63;24.73;;;;;;;;;;5037448;28;20121;-90
2021/06/21 05:23:52;;;;;;;35.47;26.58;;;;;;;;;;5005601;28;20114;-89
2021/06/21 05:26:18;;;;;;;34.53;24.58;;;;;;;;;;5013795;28;20526;-90
2021/06/21 05:28:44;;;;;;;34.63;25.15;;;;;;;;;;5015364;28;20033;-90
2021/06/21 05:31:10;;;;;;;33.47;23.33;;;;;;;;;;5002048;28;20053;-89
2021/06/21 05:33:37;;;;;;;34.20;24.30;;;;;;;;;;5021741;28;20108;-89
2021/06/21 05:36:03;;;;;;;30.20;20.80;;;;;;;;;;5042152;28;20048;-90
2021/06/21 05:38:29;;;;;;;31.75;22.98;;;;;;;;;;4982884;28;20042;-91
2021/06/21 05:40:55;;;;;;;31.38;22.80;;;;;;;;;;5030543;28;20044;-87
2021/06/21 05:43:21;;;;;;;36.00;23.88;;;;;;;;;;5033907;28;20029;-90
2021/06/21 05:45:47;;;;;;;36.53;24.55;;;;;;;;;;5024430;28;20130;-89
2021/06/21 05:48:13;;;;;;;35.83;24.83;;;;;;;;;;5021050;28;20037;-93
2021/06/21 05:50:39;;;;;;;34.05;21.95;;;;;;;;;;5025165;28;20467;-92
2021/06/21 05:53:05;;;;;;;33.05;22.67;;;;;;;;;;5037605;28;20045;-87
2021/06/21 05:55:31;;;;;;;32.38;22.20;;;;;;;;;;5054215;28;20414;-89
2021/06/21 05:57:58;;;;;;;29.38;18.55;;;;;;;;;;5042026;28;20160;-90
2021/06/21 06:00:24;;;;;;;29.65;19.33;;;;;;;;;;5040255;28;20044;-91
2021/06/21 06:02:50;;;;;;;36.40;21.90;;;;;;;;;;5030334;28;20044;-91
2021/06/21 06:05:16;;;;;;;30.63;20.15;;;;;;;;;;5026502;28;20044;-88
2021/06/21 06:07:43;;;;;;;29.42;18.17;;;;;;;;;;5005846;28;20204;-88
2021/06/21 06:10:13;;;;;;;30.92;19.00;;;;;;;;;;5003879;28;20115;-90
2021/06/21 06:12:39;;;;;;;28.15;19.10;;;;;;;;;;5015866;28;20037;-90
2021/06/21 06:15:05;;;;;;;26.65;18.90;;;;;;;;;;5029278;28;20041;-90
2021/06/21 06:17:32;;;;;;;26.63;18.85;;;;;;;;;;5021582;28;20084;-90
2021/06/21 06:19:58;;;;;;;35.15;22.10;;;;;;;;;;4997916;28;20037;-90
2021/06/21 06:22:24;;;;;;;32.78;22.88;;;;;;;;;;4985165;28;20374;-90
2021/06/21 06:24:51;;;;;;;32.10;20.95;;;;;;;;;;4977712;28;20070;-90
2021/06/21 06:27:17;;;;;;;31.52;21.63;;;;;;;;;;5006111;28;20117;-92
2021/06/21 06:29:43;;;;;;;34.65;23.40;;;;;;;;;;4990844;28;20126;-90
2021/06/21 06:32:09;;;;;;;35.00;23.13;;;;;;;;;;5035829;28;20518;-91
2021/06/21 06:34:35;;;;;;;35.28;22.33;;;;;;;;;;5023136;28;20037;-92
2021/06/21 06:37:01;;;;;;;38.47;23.75;;;;;;;;;;5006527;28;20064;-92
2021/06/21 06:39:27;;;;;;;34.95;20.42;;;;;;;;;;5027508;28;20172;-89
2021/06/21 06:41:53;;;;;;;36.70;24.48;;;;;;;;;;4978805;28;20044;-91
2021/06/21 06:44:20;;;;;;;32.47;22.52;;;;;;;;;;5010470;28;20034;-93
2021/06/21 06:46:46;;;;;;;33.05;21.52;;;;;;;;;;5004191;28;20116;-90
2021/06/21 06:49:13;;;;;;;31.73;21.58;;;;;;;;;;5008882;28;20034;-89
2021/06/21 06:51:44;;;;;;;31.15;20.58;;;;;;;;;;4997496;28;20088;-88
2021/06/21 06:59:21;;;;;;;35.13;23.05;;;;;;;;;;5015413;28;20032;-92
2021/06/21 07:01:47;;;;;;;38.05;25.38;;;;;;;;;;5036465;28;20055;-90
2021/06/21 07:04:14;;;;;;;39.38;24.10;;;;;;;;;;5008027;28;20117;-89
2021/06/21 07:06:40;;;;;;;42.17;26.00;;;;;;;;;;4993819;28;20041;-89
2021/06/21 07:09:06;;;;;;;37.88;23.48;;;;;;;;;;4992474;28;20492;-90
2021/06/21 07:11:36;;;;;;;36.97;23.80;;;;;;;;;;5011573;28;20112;-90
2021/06/21 07:14:05;;;;;;;42.05;27.35;;;;;;;;;;5008435;28;20048;-90
2021/06/21 07:16:32;;;;;;;42.35;24.67;;;;;;;;;;5005807;28;20125;-90
2021/06/21 07:18:58;;;;;;;45.58;26.92;;;;;;;;;;5021985;28;20117;-89
2021/06/21 07:21:24;;;;;;;45.03;26.77;;;;;;;;;;5019313;28;20120;-90
2021/06/21 07:23:50;;;;;;;43.38;25.45;;;;;;;;;;5025574;28;20107;-90
2021/06/21 07:26:16;;;;;;;39.47;23.80;;;;;;;;;;5020862;28;20041;-91
2021/06/21 07:28:42;;;;;;;38.00;23.52;;;;;;;;;;5026947;28;20069;-91
2021/06/21 07:31:09;;;;;;;41.60;24.15;;;;;;;;;;5022756;28;20052;-90
2021/06/21 07:33:35;;;;;;;37.58;20.25;;;;;;;;;;5023478;28;20061;-91
2021/06/21 07:36:02;;;;;;;43.88;23.98;;;;;;;;;;5018891;28;20064;-90
2021/06/21 07:38:28;;;;;;;36.63;23.55;;;;;;;;;;5041937;28;20060;-90
2021/06/21 07:40:54;;;;;;;33.88;20.40;;;;;;;;;;5019846;28;20389;-90
2021/06/21 07:43:20;;;;;;;35.78;20.35;;;;;;;;;;5005673;28;20044;-90
2021/06/21 07:45:47;;;;;;;35.05;20.05;;;;;;;;;;5006542;28;20164;-89
2021/06/21 07:48:13;;;;;;;37.45;22.35;;;;;;;;;;5006137;28;20057;-90
2021/06/21 07:50:39;;;;;;;37.50;20.25;;;;;;;;;;5006050;28;20046;-91
2021/06/21 07:53:06;;;;;;;36.40;21.98;;;;;;;;;;5005353;28;20038;-89
2021/06/21 07:55:35;;;;;;;37.13;20.13;;;;;;;;;;5005634;28;20034;-91
2021/06/21 07:58:02;;;;;;;38.72;21.88;;;;;;;;;;5007339;28;20488;-89
2021/06/21 08:00:28;;;;;;;37.25;21.90;;;;;;;;;;5037781;28;20773;-85
2021/06/21 08:02:54;;;;;;;34.55;20.73;;;;;;;;;;5020269;28;20030;-89
2021/06/21 08:05:21;;;;;;;38.92;21.75;;;;;;;;;;5042666;28;21126;-88
2021/06/21 08:07:47;;;;;;;36.67;21.52;;;;;;;;;;5044032;28;20037;-89
2021/06/21 08:10:14;;;;;;;40.08;20.90;;;;;;;;;;5014994;28;20038;-86
2021/06/21 08:12:42;;;;;;;35.58;20.98;;;;;;;;;;5014299;28;20188;-89
2021/06/21 08:15:09;;;;;;;33.30;21.73;;;;;;;;;;4982788;28;20038;-89
2021/06/21 08:17:35;;;;;;;43.58;22.42;;;;;;;;;;5010048;28;20087;-89
2021/06/21 08:20:04;;;;;;;37.55;23.80;;;;;;;;;;5008939;28;20042;-89
2021/06/21 08:22:30;;;;;;;41.47;22.88;;;;;;;;;;5007107;28;20030;-90
2021/06/21 08:24:56;;;;;;;39.92;24.33;;;;;;;;;;5010264;28;20033;-89
2021/06/21 08:27:23;;;;;;;37.03;21.88;;;;;;;;;;5029583;28;20103;-89
2021/06/21 08:29:49;;;;;;;38.75;22.13;;;;;;;;;;5033400;28;20037;-87
2021/06/21 08:32:15;;;;;;;38.03;24.77;;;;;;;;;;5027224;28;20534;-89
2021/06/21 08:34:41;;;;;;;35.35;21.63;;;;;;;;;;5011892;28;20033;-91
2021/06/21 08:37:07;;;;;;;41.72;27.20;;;;;;;;;;5024262;28;20045;-90
2021/06/21 08:39:33;;;;;;;40.85;26.65;;;;;;;;;;5020542;28;20034;-89
2021/06/21 08:42:00;;;;;;;54.55;34.72;;;;;;;;;;5008552;28;20053;-89
2021/06/21 08:44:27;;;;;;;51.45;31.35;;;;;;;;;;5004860;28;20041;-88
2021/06/21 08:46:53;;;;;;;57.40;32.72;;;;;;;;;;5005097;28;20064;-89
2021/06/21 08:49:19;;;;;;;46.25;29.58;;;;;;;;;;5017238;28;20059;-87
2021/06/21 08:51:48;;;;;;;47.97;31.83;;;;;;;;;;5012742;28;20512;-89
2021/06/21 08:54:16;;;;;;;49.72;31.27;;;;;;;;;;4990425;28;20491;-89
2021/06/21 08:56:42;;;;;;;50.28;32.55;;;;;;;;;;5013592;28;20033;-89
2021/06/21 08:59:09;;;;;;;53.95;34.25;;;;;;;;;;5031796;28;20041;-88
2021/06/21 09:01:43;;;;;;;51.65;33.25;;;;;;;;;;5008521;28;20042;-89
2021/06/21 09:04:10;;;;;;;55.17;37.90;;;;;;;;;;5024399;28;20044;-88
2021/06/21 09:06:37;;;;;;;51.28;35.92;;;;;;;;;;5028245;28;20037;-89
2021/06/21 09:09:03;;;;;;;49.17;31.33;;;;;;;;;;5046481;28;20025;-85
2021/06/21 09:11:51;;;;;;;39.83;22.60;;;;;;;;;;5032142;28;20045;-89
2021/06/21 09:14:26;;;;;;;37.85;25.30;;;;;;;;;;5027328;28;20030;-90
2021/06/21 09:16:52;;;;;;;38.03;23.75;;;;;;;;;;5041015;28;20069;-85
2021/06/21 09:19:19;;;;;;;36.05;20.63;;;;;;;;;;5030059;28;20507;-89
2021/06/21 09:21:45;;;;;;;34.75;21.25;;;;;;;;;;5025332;28;20077;-86
2021/06/21 09:24:12;;;;;;;32.80;20.25;;;;;;;;;;5033002;28;20030;-89
2021/06/21 09:26:40;;;;;;;32.03;19.83;;;;;;;;;;5038612;28;20504;-88
2021/06/21 09:29:06;;;;;;;33.40;20.98;;;;;;;;;;5037523;28;20056;-87
2021/06/21 09:31:48;;;;;;;32.40;18.88;;;;;;;;;;5045193;28;20056;-87
2021/06/21 09:34:15;;;;;;;31.50;19.70;;;;;;;;;;5037072;28;20041;-88
2021/06/21 09:36:41;;;;;;;34.85;20.27;;;;;;;;;;5040866;28;20029;-88
2021/06/21 09:39:26;;;;;;;31.75;21.08;;;;;;;;;;5042114;28;20010;-91
2021/06/21 09:42:08;;;;;;;32.85;20.02;;;;;;;;;;5000423;28;20045;-88
2021/06/21 09:44:45;;;;;;;30.52;19.58;;;;;;;;;;5044272;28;20037;-90
2021/06/21 09:47:11;;;;;;;33.60;20.10;;;;;;;;;;5016975;28;20045;-89
2021/06/21 09:49:37;;;;;;;32.58;20.23;;;;;;;;;;5023859;28;20033;-88
2021/06/21 09:52:03;;;;;;;30.45;18.60;;;;;;;;;;5020390;28;20132;-84
2021/06/21 09:54:33;;;;;;;32.50;20.45;;;;;;;;;;5022903;28;20492;-81
2021/06/21 09:57:11;;;;;;;31.73;20.13;;;;;;;;;;5020026;28;20516;-82
2021/06/21 09:59:46;;;;;;;32.25;18.98;;;;;;;;;;4992935;28;20073;-84
2021/06/21 10:02:16;;;;;;;31.73;20.20;;;;;;;;;;4983330;28;20034;-94
2021/06/21 10:04:43;;;;;;;36.95;19.05;;;;;;;;;;4996873;28;20117;-82
2021/06/21 10:07:29;;;;;;;31.25;20.08;;;;;;;;;;5020757;28;20029;-82
2021/06/21 10:09:58;;;;;;;34.65;18.80;;;;;;;;;;5012761;28;20037;-83
2021/06/21 10:12:25;;;;;;;30.30;16.42;;;;;;;;;;5001348;28;20111;-80
2021/06/21 10:14:51;;;;;;;28.75;16.83;;;;;;;;;;5011802;28;20064;-83
2021/06/21 10:17:17;;;;;;;29.38;16.63;;;;;;;;;;4998868;28;20044;-81
2021/06/21 10:19:43;;;;;;;30.58;17.80;;;;;;;;;;5000300;28;21093;-83
2021/06/21 10:22:09;;;;;;;27.55;15.77;;;;;;;;;;5010080;28;20503;-85
2021/06/21 10:24:35;;;;;;;30.83;15.73;;;;;;;;;;5015590;28;20074;-86
2021/06/21 10:27:04;;;;;;;24.77;13.98;;;;;;;;;;5015948;28;20362;-84
2021/06/21 10:29:30;;;;;;;25.33;15.05;;;;;;;;;;5001597;28;20094;-83
2021/06/21 10:31:57;;;;;;;26.70;14.65;;;;;;;;;;5008924;28;20053;-86
2021/06/21 10:34:23;;;;;;;19.58;14.15;;;;;;;;;;5030724;28;20041;-88
2021/06/21 10:36:53;;;;;;;23.55;13.77;;;;;;;;;;5021774;28;20124;-86
2021/06/21 10:39:20;;;;;;;20.08;12.25;;;;;;;;;;5039418;28;20049;-88
2021/06/21 10:42:04;;;;;;;18.85;12.80;;;;;;;;;;5006880;28;20073;-87
2021/06/21 10:44:35;;;;;;;15.45;11.15;;;;;;;;;;5027589;28;20041;-81
2021/06/21 10:47:19;;;;;;;17.83;11.00;;;;;;;;;;5018573;28;20116;-85
2021/06/21 10:49:56;;;;;;;21.63;13.38;;;;;;;;;;5002614;28;20042;-82
2021/06/21 10:52:31;;;;;;;14.90;10.15;;;;;;;;;;5004033;28;20046;-81
2021/06/21 10:55:16;;;;;;;16.20;10.95;;;;;;;;;;4993087;28;20037;-84
2021/06/21 10:57:42;;;;;;;13.65;8.77;;;;;;;;;;5031785;28;20045;-85
2021/06/21 11:00:12;;;;;;;12.70;8.15;;;;;;;;;;5033310;28;21138;-85
2021/06/21 11:02:38;;;;;;;15.07;8.57;;;;;;;;;;5017646;28;20095;-82
2021/06/21 11:05:04;;;;;;;12.95;7.75;;;;;;;;;;5014209;28;20116;-84
2021/06/21 11:07:30;;;;;;;13.57;8.18;;;;;;;;;;5013743;28;20530;-81
2021/06/21 11:10:01;;;;;;;13.05;7.80;;;;;;;;;;5003392;28;20096;-82
2021/06/21 11:12:35;;;;;;;12.43;8.18;;;;;;;;;;5033212;28;20125;-84
2021/06/21 11:15:09;;;;;;;16.73;7.28;;;;;;;;;;5019041;28;20510;-84
2021/06/21 11:17:52;;;;;;;12.13;7.70;;;;;;;;;;5017734;28;20049;-85
2021/06/21 11:20:31;;;;;;;12.45;8.00;;;;;;;;;;5017767;28;20133;-83
2021/06/21 11:22:59;;;;;;;9.57;6.57;;;;;;;;;;5019015;28;20518;-82
2021/06/21 11:25:26;;;;;;;14.18;7.18;;;;;;;;;;5016145;28;20100;-84
2021/06/21 11:27:53;;;;;;;12.27;7.53;;;;;;;;;;5013703;28;20542;-86
2021/06/21 11:30:23;;;;;;;11.20;7.30;;;;;;;;;;5021757;28;20049;-84
2021/06/21 11:33:03;;;;;;;7.82;5.35;;;;;;;;;;5020386;28;20049;-81
2021/06/21 11:35:56;;;;;;;10.73;5.93;;;;;;;;;;5022195;28;20115;-85
2021/06/21 11:38:22;;;;;;;6.88;4.90;;;;;;;;;;5012214;28;20030;-84
2021/06/21 11:40:48;;;;;;;7.03;4.97;;;;;;;;;;5001176;28;20038;-85
2021/06/21 11:43:16;;;;;;;7.78;4.90;;;;;;;;;;5016091;28;20045;-84
2021/06/21 11:45:50;;;;;;;6.93;4.90;;;;;;;;;;5007601;28;20042;-85
2021/06/21 11:48:23;;;;;;;6.97;4.63;;;;;;;;;;5009510;28;20069;-84
2021/06/21 11:50:49;;;;;;;17.02;4.97;;;;;;;;;;5010634;28;20072;-85
2021/06/21 11:53:15;;;;;;;7.97;5.30;;;;;;;;;;5013646;28;20033;-85
2021/06/21 11:55:41;;;;;;;10.55;4.88;;;;;;;;;;5010424;28;20120;-84
2021/06/21 11:58:07;;;;;;;9.07;5.45;;;;;;;;;;5000434;28;20053;-85
2021/06/21 12:00:34;;;;;;;8.25;4.80;;;;;;;;;;5007026;28;20041;-86
2021/06/21 12:03:04;;;;;;;11.75;5.20;;;;;;;;;;5019696;28;20072;-84
2021/06/21 12:05:51;;;;;;;15.07;5.82;;;;;;;;;;5014190;28;20041;-85
2021/06/21 12:08:19;;;;;;;12.13;6.00;;;;;;;;;;5009283;28;20121;-91
2021/06/21 12:10:45;;;;;;;12.23;6.13;;;;;;;;;;5000384;28;20091;-87
2021/06/21 12:13:11;;;;;;;11.35;7.38;;;;;;;;;;5007019;28;20061;-87
2021/06/21 12:15:41;;;;;;;11.45;7.22;;;;;;;;;;4995583;28;20026;-84
2021/06/21 12:18:08;;;;;;;14.57;6.93;;;;;;;;;;5007655;28;20034;-88
2021/06/21 12:20:35;;;;;;;12.35;6.50;;;;;;;;;;5005611;28;20037;-89
2021/06/21 12:23:02;;;;;;;11.23;6.47;;;;;;;;;;5002459;28;20041;-87
2021/06/21 12:25:39;;;;;;;16.63;6.88;;;;;;;;;;4987966;28;20125;-88
2021/06/21 12:28:15;;;;;;;9.52;6.00;;;;;;;;;;4993914;28;20090;-87
2021/06/21 12:30:43;;;;;;;10.05;7.22;;;;;;;;;;5011230;28;20047;-87
2021/06/21 12:33:21;;;;;;;11.80;8.63;;;;;;;;;;5019252;28;20041;-87
2021/06/21 12:36:04;;;;;;;13.63;8.00;;;;;;;;;;4985011;28;20036;-88
2021/06/21 12:38:30;;;;;;;14.10;9.10;;;;;;;;;;5004337;28;20091;-86
2021/06/21 12:40:56;;;;;;;9.52;6.82;;;;;;;;;;5004688;28;20091;-86
2021/06/21 12:43:23;;;;;;;9.43;5.95;;;;;;;;;;5019063;28;20037;-86
2021/06/21 12:45:48;;;;;;;9.40;5.63;;;;;;;;;;4994984;28;20026;-89
2021/06/21 12:48:16;;;;;;;9.50;6.47;;;;;;;;;;5013764;28;20481;-88
2021/06/21 12:50:42;;;;;;;7.57;4.72;;;;;;;;;;5012039;28;20061;-88
2021/06/21 12:53:08;;;;;;;9.10;3.35;;;;;;;;;;4997034;28;20085;-86
2021/06/21 12:55:35;;;;;;;6.00;3.60;;;;;;;;;;5004349;28;20045;-88
2021/06/21 12:58:03;;;;;;;5.90;3.55;;;;;;;;;;5032495;28;20527;-90
2021/06/21 13:00:45;;;;;;;7.95;4.15;;;;;;;;;;5033887;28;20042;-88
2021/06/21 13:03:19;;;;;;;7.70;3.90;;;;;;;;;;5008912;28;20033;-88
2021/06/21 13:05:47;;;;;;;7.07;4.13;;;;;;;;;;5025685;28;20037;-88
2021/06/21 13:08:14;;;;;;;6.93;3.60;;;;;;;;;;5009314;28;20037;-87
2021/06/21 13:10:40;;;;;;;7.80;3.45;;;;;;;;;;5024575;28;20048;-87
2021/06/21 13:13:06;;;;;;;5.93;3.47;;;;;;;;;;5017318;28;20041;-87
2021/06/21 13:15:40;;;;;;;5.43;3.55;;;;;;;;;;5013950;28;20038;-90
2021/06/21 13:18:06;;;;;;;7.32;3.90;;;;;;;;;;5001488;28;20258;-90
2021/06/21 13:20:32;;;;;;;6.15;4.07;;;;;;;;;;5003153;28;20441;-92
2021/06/21 13:22:58;;;;;;;8.43;4.75;;;;;;;;;;5002816;28;20030;-91
2021/06/21 13:25:35;;;;;;;7.38;4.40;;;;;;;;;;5002833;28;20538;-90
2021/06/21 13:28:03;;;;;;;7.68;4.18;;;;;;;;;;5015030;28;20084;-89
2021/06/21 13:30:31;;;;;;;7.53;3.60;;;;;;;;;;5003211;28;20026;-86
2021/06/21 13:32:59;;;;;;;8.82;4.32;;;;;;;;;;4999308;28;20025;-89
2021/06/21 13:35:25;;;;;;;8.07;3.97;;;;;;;;;;5004257;28;20518;-91
2021/06/21 13:37:52;;;;;;;6.70;3.75;;;;;;;;;;5025698;28;20125;-86
2021/06/21 13:40:21;;;;;;;7.82;3.97;;;;;;;;;;5001731;28;20116;-92
2021/06/21 13:42:51;;;;;;;7.10;4.13;;;;;;;;;;4996489;28;20064;-88
2021/06/21 13:45:20;;;;;;;5.78;2.95;;;;;;;;;;5002661;28;20049;-87
2021/06/21 13:47:47;;;;;;;6.60;3.40;;;;;;;;;;5011976;28;20522;-86
2021/06/21 13:50:18;;;;;;;8.10;4.25;;;;;;;;;;5008377;28;20033;-87
2021/06/21 13:52:48;;;;;;;7.65;3.03;;;;;;;;;;5014088;28;20057;-91
2021/06/21 13:55:15;;;;;;;6.00;3.10;;;;;;;;;;5006671;28;20096;-87
2021/06/21 13:57:43;;;;;;;4.95;3.20;;;;;;;;;;5021060;28;20087;-87
2021/06/21 14:00:10;;;;;;;8.18;3.80;;;;;;;;;;5033933;28;20060;-86
2021/06/21 14:02:38;;;;;;;94.95;15.95;;;;;;;;;;5002860;28;20065;-89
2021/06/21 14:05:04;;;;;;;;;;;;;;;;;;5026208;28;20048;-87
2021/06/21 14:07:31;;;;;;;5.75;3.50;;;;;;;;;;5022872;28;19913;-88
2021/06/21 14:09:58;;;;;;;6.78;3.22;;;;;;;;;;5003929;28;20041;-88
2021/06/21 14:12:25;;;;;;;5.25;3.00;;;;;;;;;;4997098;28;20491;-93
2021/06/21 14:14:51;;;;;;;5.53;3.00;;;;;;;;;;5021111;28;20034;-89
2021/06/21 14:17:19;;;;;;;5.82;4.03;;;;;;;;;;5003391;28;20038;-89
2021/06/21 14:19:45;;;;;;;4.28;2.83;;;;;;;;;;4998549;28;20037;-88
2021/06/21 14:22:12;;;;;;;7.10;3.45;;;;;;;;;;5013496;28;20131;-90
2021/06/21 14:24:38;;;;;;;4.25;2.72;;;;;;;;;;5016866;28;20029;-87
2021/06/21 14:27:04;;;;;;;6.32;2.97;;;;;;;;;;5008392;28;20110;-87
2021/06/21 14:29:30;;;;;;;6.72;3.60;;;;;;;;;;5022203;28;20064;-87
2021/06/21 14:31:56;;;;;;;5.13;2.53;;;;;;;;;;5017982;28;20061;-85
2021/06/21 14:34:22;;;;;;;5.05;3.25;;;;;;;;;;5013379;28;20061;-87
2021/06/21 14:36:48;;;;;;;3.85;1.98;;;;;;;;;;5015651;28;20061;-86
2021/06/21 14:39:15;;;;;;;5.45;2.50;;;;;;;;;;5013246;28;20037;-85
2021/06/21 14:41:41;;;;;;;6.95;3.95;;;;;;;;;;5032818;28;20450;-90
2021/06/21 14:44:07;;;;;;;7.13;2.70;;;;;;;;;;5035221;28;20073;-86
2021/06/21 14:46:33;;;;;;;4.38;2.40;;;;;;;;;;5004151;28;20061;-86
2021/06/21 14:49:00;;;;;;;4.93;2.70;;;;;;;;;;5002210;28;20034;-87
2021/06/21 14:51:26;;;;;;;4.93;2.38;;;;;;;;;;5012369;28;20045;-87
2021/06/21 14:53:52;;;;;;;4.40;2.13;;;;;;;;;;5014677;28;20041;-89
2021/06/21 14:56:19;;;;;;;4.97;2.70;;;;;;;;;;4974505;28;20050;-87
2021/06/21 14:58:45;;;;;;;5.03;2.50;;;;;;;;;;5015966;28;20827;-88
2021/06/21 15:01:12;;;;;;;4.45;2.70;;;;;;;;;;5021968;28;20036;-90
2021/06/21 15:03:38;;;;;;;5.07;2.65;;;;;;;;;;5022741;28;20036;-89
2021/06/21 15:06:14;;;;;;;3.92;2.65;;;;;;;;;;5012988;28;20128;-88
2021/06/21 15:08:41;;;;;;;5.65;2.95;;;;;;;;;;5019315;28;20056;-87
2021/06/21 15:11:07;;;;;;;4.97;3.03;;;;;;;;;;5009338;28;20045;-88
2021/06/21 15:13:35;;;;;;;4.43;2.40;;;;;;;;;;5005338;28;20473;-88
2021/06/21 15:16:01;;;;;;;4.50;2.38;;;;;;;;;;5001276;28;20060;-86
2021/06/21 15:18:28;;;;;;;5.07;3.13;;;;;;;;;;5014524;28;20067;-88
2021/06/21 15:20:54;;;;;;;4.20;2.20;;;;;;;;;;5025857;28;20038;-89
2021/06/21 15:23:20;;;;;;;4.03;2.30;;;;;;;;;;5026062;28;20560;-87
2021/06/21 15:25:46;;;;;;;3.33;1.80;;;;;;;;;;5029860;28;20044;-85
2021/06/21 15:28:12;;;;;;;6.00;2.35;;;;;;;;;;5031151;28;20029;-87
2021/06/21 15:30:38;;;;;;;5.43;2.53;;;;;;;;;;5025928;28;20044;-87
2021/06/21 15:33:04;;;;;;;3.53;2.35;;;;;;;;;;5014844;28;20548;-88
2021/06/21 15:35:31;;;;;;;3.90;1.98;;;;;;;;;;5024871;28;20041;-87
2021/06/21 15:37:57;;;;;;;4.82;2.40;;;;;;;;;;5025514;28;20033;-88
2021/06/21 15:40:26;;;;;;;5.95;2.58;;;;;;;;;;5024248;28;20034;-83
